sensor_id;sensor_type;location;lat;lon;timestamp;P1;durP1;ratioP1;P2;durP2;ratioP2
6306;SDS011;3186;54.062;9.962;2023-01-26T00:01:20;68.23;;;29.17;;
6306;SDS011;3186;54.062;9.962;2023-01-26T00:03:47;67.53;;;26.77;;
6306;SDS011;3186;54.062;9.962;2023-01-26T00:06:15;72.50;;;29.63;;
6306;SDS011;3186;54.062;9.962;2023-01-26T00:08:43;64.60;;;26.33;;
6306;SDS011;3186;54.062;9.962;2023-01-26T00:11:12;63.90;;;27.47;;
6306;SDS011;3186;54.062;9.962;2023-01-26T00:13:39;68.80;;;27.47;;
6306;SDS011;3186;54.062;9.962;2023-01-26T00:16:10;67.00;;;28.33;;
6306;SDS011;3186;54.062;9.962;2023-01-26T00:18:38;61.80;;;25.73;;
6306;SDS011;3186;54.062;9.962;2023-01-26T00:21:06;64.07;;;26.70;;
6306;SDS011;3186;54.062;9.962;2023-01-26T00:23:35;66.37;;;26.87;;
6306;SDS011;3186;54.062;9.962;2023-01-26T00:26:01;62.03;;;26.80;;
6306;SDS011;3186;54.062;9.962;2023-01-26T00:28:32;65.57;;;26.37;;
6306;SDS011;3186;54.062;9.962;2023-01-26T00:31:06;67.50;;;26.17;;
6306;SDS011;3186;54.062;9.962;2023-01-26T00:33:35;65.03;;;27.83;;
6306;SDS011;3186;54.062;9.962;2023-01-26T00:36:01;59.43;;;25.13;;
6306;SDS011;3186;54.062;9.962;2023-01-26T00:38:26;64.27;;;26.40;;
6306;SDS011;3186;54.062;9.962;2023-01-26T00:40:52;59.40;;;25.53;;
6306;SDS011;3186;54.062;9.962;2023-01-26T00:43:19;56.57;;;25.43;;
6306;SDS011;3186;54.062;9.962;2023-01-26T00:45:45;60.67;;;25.03;;
6306;SDS011;3186;54.062;9.962;2023-01-26T00:48:11;59.97;;;26.73;;
6306;SDS011;3186;54.062;9.962;2023-01-26T00:50:37;62.70;;;26.43;;
6306;SDS011;3186;54.062;9.962;2023-01-26T00:53:02;59.93;;;27.07;;
6306;SDS011;3186;54.062;9.962;2023-01-26T00:55:28;66.93;;;27.23;;
6306;SDS011;3186;54.062;9.962;2023-01-26T00:57:59;62.73;;;27.40;;
6306;SDS011;3186;54.062;9.962;2023-01-26T01:00:27;58.57;;;24.77;;
6306;SDS011;3186;54.062;9.962;2023-01-26T01:02:53;59.57;;;24.33;;
6306;SDS011;3186;54.062;9.962;2023-01-26T01:05:21;59.33;;;25.00;;
6306;SDS011;3186;54.062;9.962;2023-01-26T01:07:47;60.97;;;25.20;;
6306;SDS011;3186;54.062;9.962;2023-01-26T01:10:13;57.43;;;26.17;;
6306;SDS011;3186;54.062;9.962;2023-01-26T01:12:39;60.47;;;26.67;;
6306;SDS011;3186;54.062;9.962;2023-01-26T01:15:05;59.37;;;25.47;;
6306;SDS011;3186;54.062;9.962;2023-01-26T01:17:31;61.47;;;26.77;;
6306;SDS011;3186;54.062;9.962;2023-01-26T01:19:58;59.17;;;26.17;;
6306;SDS011;3186;54.062;9.962;2023-01-26T01:22:23;61.53;;;25.83;;
6306;SDS011;3186;54.062;9.962;2023-01-26T01:24:50;61.47;;;26.37;;
6306;SDS011;3186;54.062;9.962;2023-01-26T01:27:16;62.87;;;27.10;;
6306;SDS011;3186;54.062;9.962;2023-01-26T01:29:42;57.57;;;24.00;;
6306;SDS011;3186;54.062;9.962;2023-01-26T01:32:08;55.57;;;25.57;;
6306;SDS011;3186;54.062;9.962;2023-01-26T01:34:34;58.97;;;25.20;;
6306;SDS011;3186;54.062;9.962;2023-01-26T01:37:00;56.57;;;24.03;;
6306;SDS011;3186;54.062;9.962;2023-01-26T01:39:26;61.50;;;25.00;;
6306;SDS011;3186;54.062;9.962;2023-01-26T01:41:51;61.57;;;24.97;;
6306;SDS011;3186;54.062;9.962;2023-01-26T01:44:18;59.27;;;24.90;;
6306;SDS011;3186;54.062;9.962;2023-01-26T01:46:59;56.27;;;23.83;;
6306;SDS011;3186;54.062;9.962;2023-01-26T01:49:36;58.80;;;24.87;;
6306;SDS011;3186;54.062;9.962;2023-01-26T01:52:10;62.10;;;25.77;;
6306;SDS011;3186;54.062;9.962;2023-01-26T01:54:39;57.97;;;23.67;;
6306;SDS011;3186;54.062;9.962;2023-01-26T01:57:12;48.20;;;22.07;;
6306;SDS011;3186;54.062;9.962;2023-01-26T01:59:48;56.53;;;25.00;;
6306;SDS011;3186;54.062;9.962;2023-01-26T02:02:19;56.00;;;24.57;;
6306;SDS011;3186;54.062;9.962;2023-01-26T02:04:45;56.87;;;23.60;;
6306;SDS011;3186;54.062;9.962;2023-01-26T02:07:11;53.77;;;23.20;;
6306;SDS011;3186;54.062;9.962;2023-01-26T02:09:37;53.27;;;23.67;;
6306;SDS011;3186;54.062;9.962;2023-01-26T02:12:25;58.37;;;23.77;;
6306;SDS011;3186;54.062;9.962;2023-01-26T02:14:54;57.90;;;24.03;;
6306;SDS011;3186;54.062;9.962;2023-01-26T02:17:21;54.20;;;22.33;;
6306;SDS011;3186;54.062;9.962;2023-01-26T02:19:50;50.60;;;22.60;;
6306;SDS011;3186;54.062;9.962;2023-01-26T02:25:34;51.70;;;23.10;;
6306;SDS011;3186;54.062;9.962;2023-01-26T02:28:06;51.73;;;23.37;;
6306;SDS011;3186;54.062;9.962;2023-01-26T02:30:32;52.87;;;21.07;;
6306;SDS011;3186;54.062;9.962;2023-01-26T02:32:58;54.17;;;23.47;;
6306;SDS011;3186;54.062;9.962;2023-01-26T02:35:24;54.33;;;22.23;;
6306;SDS011;3186;54.062;9.962;2023-01-26T02:37:51;48.60;;;21.40;;
6306;SDS011;3186;54.062;9.962;2023-01-26T02:40:32;49.23;;;21.80;;
6306;SDS011;3186;54.062;9.962;2023-01-26T02:43:14;49.27;;;22.43;;
6306;SDS011;3186;54.062;9.962;2023-01-26T02:45:40;50.07;;;21.97;;
6306;SDS011;3186;54.062;9.962;2023-01-26T02:48:07;51.30;;;21.93;;
6306;SDS011;3186;54.062;9.962;2023-01-26T02:50:33;48.57;;;21.40;;
6306;SDS011;3186;54.062;9.962;2023-01-26T02:52:59;48.40;;;22.03;;
6306;SDS011;3186;54.062;9.962;2023-01-26T02:55:29;49.30;;;21.80;;
6306;SDS011;3186;54.062;9.962;2023-01-26T02:58:00;48.27;;;22.13;;
6306;SDS011;3186;54.062;9.962;2023-01-26T03:00:30;45.63;;;21.10;;
6306;SDS011;3186;54.062;9.962;2023-01-26T03:03:01;45.23;;;21.07;;
6306;SDS011;3186;54.062;9.962;2023-01-26T03:05:40;41.40;;;18.87;;
6306;SDS011;3186;54.062;9.962;2023-01-26T03:08:07;41.13;;;19.20;;
6306;SDS011;3186;54.062;9.962;2023-01-26T03:10:35;43.73;;;19.97;;
6306;SDS011;3186;54.062;9.962;2023-01-26T03:13:01;47.13;;;19.93;;
6306;SDS011;3186;54.062;9.962;2023-01-26T03:15:28;45.07;;;20.43;;
6306;SDS011;3186;54.062;9.962;2023-01-26T03:18:26;40.37;;;18.27;;
6306;SDS011;3186;54.062;9.962;2023-01-26T03:21:13;40.67;;;19.17;;
6306;SDS011;3186;54.062;9.962;2023-01-26T03:23:59;46.43;;;19.60;;
6306;SDS011;3186;54.062;9.962;2023-01-26T03:26:45;39.47;;;17.17;;
6306;SDS011;3186;54.062;9.962;2023-01-26T03:29:31;37.23;;;17.33;;
6306;SDS011;3186;54.062;9.962;2023-01-26T03:31:59;40.90;;;18.17;;
6306;SDS011;3186;54.062;9.962;2023-01-26T03:34:26;40.87;;;18.43;;
6306;SDS011;3186;54.062;9.962;2023-01-26T03:36:53;40.47;;;18.80;;
6306;SDS011;3186;54.062;9.962;2023-01-26T03:39:20;40.63;;;18.03;;
6306;SDS011;3186;54.062;9.962;2023-01-26T03:42:04;39.77;;;18.33;;
6306;SDS011;3186;54.062;9.962;2023-01-26T03:44:48;41.07;;;17.77;;
6306;SDS011;3186;54.062;9.962;2023-01-26T03:47:35;38.23;;;18.70;;
6306;SDS011;3186;54.062;9.962;2023-01-26T03:50:20;39.13;;;18.10;;
6306;SDS011;3186;54.062;9.962;2023-01-26T03:55:59;31.43;;;15.10;;
6306;SDS011;3186;54.062;9.962;2023-01-26T03:59:16;35.73;;;16.70;;
6306;SDS011;3186;54.062;9.962;2023-01-26T04:01:44;38.43;;;17.03;;
6306;SDS011;3186;54.062;9.962;2023-01-26T04:04:30;34.63;;;16.27;;
6306;SDS011;3186;54.062;9.962;2023-01-26T04:07:15;37.70;;;17.37;;
6306;SDS011;3186;54.062;9.962;2023-01-26T04:10:00;36.63;;;17.33;;
6306;SDS011;3186;54.062;9.962;2023-01-26T04:12:27;36.70;;;17.37;;
6306;SDS011;3186;54.062;9.962;2023-01-26T04:15:04;38.60;;;17.70;;
6306;SDS011;3186;54.062;9.962;2023-01-26T04:17:49;37.93;;;17.23;;
6306;SDS011;3186;54.062;9.962;2023-01-26T04:20:33;38.30;;;17.60;;
6306;SDS011;3186;54.062;9.962;2023-01-26T04:23:19;37.73;;;17.50;;
6306;SDS011;3186;54.062;9.962;2023-01-26T04:25:47;37.80;;;17.70;;
6306;SDS011;3186;54.062;9.962;2023-01-26T04:28:13;33.63;;;16.47;;
6306;SDS011;3186;54.062;9.962;2023-01-26T04:30:40;37.73;;;17.87;;
6306;SDS011;3186;54.062;9.962;2023-01-26T04:33:06;39.00;;;17.20;;
6306;SDS011;3186;54.062;9.962;2023-01-26T04:35:32;37.00;;;18.00;;
6306;SDS011;3186;54.062;9.962;2023-01-26T04:37:58;41.30;;;18.20;;
6306;SDS011;3186;54.062;9.962;2023-01-26T04:40:24;36.90;;;17.93;;
6306;SDS011;3186;54.062;9.962;2023-01-26T04:42:50;38.93;;;17.20;;
6306;SDS011;3186;54.062;9.962;2023-01-26T04:45:16;40.40;;;18.73;;
6306;SDS011;3186;54.062;9.962;2023-01-26T04:47:43;37.20;;;17.40;;
6306;SDS011;3186;54.062;9.962;2023-01-26T04:50:10;41.57;;;18.87;;
6306;SDS011;3186;54.062;9.962;2023-01-26T04:52:36;39.83;;;18.70;;
6306;SDS011;3186;54.062;9.962;2023-01-26T04:55:02;39.33;;;18.77;;
6306;SDS011;3186;54.062;9.962;2023-01-26T04:57:30;41.60;;;17.20;;
6306;SDS011;3186;54.062;9.962;2023-01-26T04:59:59;43.23;;;19.23;;
6306;SDS011;3186;54.062;9.962;2023-01-26T05:02:25;42.20;;;19.77;;
6306;SDS011;3186;54.062;9.962;2023-01-26T05:04:51;39.50;;;18.77;;
6306;SDS011;3186;54.062;9.962;2023-01-26T05:07:17;41.57;;;19.13;;
6306;SDS011;3186;54.062;9.962;2023-01-26T05:09:44;38.73;;;17.37;;
6306;SDS011;3186;54.062;9.962;2023-01-26T05:12:34;38.50;;;17.57;;
6306;SDS011;3186;54.062;9.962;2023-01-26T05:15:20;36.23;;;17.73;;
6306;SDS011;3186;54.062;9.962;2023-01-26T05:17:58;38.30;;;17.63;;
6306;SDS011;3186;54.062;9.962;2023-01-26T05:20:50;36.70;;;18.63;;
6306;SDS011;3186;54.062;9.962;2023-01-26T05:23:21;35.90;;;17.70;;
6306;SDS011;3186;54.062;9.962;2023-01-26T05:26:06;38.13;;;17.70;;
6306;SDS011;3186;54.062;9.962;2023-01-26T05:28:42;38.33;;;16.93;;
6306;SDS011;3186;54.062;9.962;2023-01-26T05:31:08;36.70;;;16.97;;
6306;SDS011;3186;54.062;9.962;2023-01-26T05:33:34;40.83;;;18.60;;
6306;SDS011;3186;54.062;9.962;2023-01-26T05:36:04;37.27;;;17.50;;
6306;SDS011;3186;54.062;9.962;2023-01-26T05:38:32;41.47;;;19.93;;
6306;SDS011;3186;54.062;9.962;2023-01-26T05:40:59;39.20;;;18.33;;
6306;SDS011;3186;54.062;9.962;2023-01-26T05:43:25;37.40;;;17.40;;
6306;SDS011;3186;54.062;9.962;2023-01-26T05:46:08;38.27;;;17.30;;
6306;SDS011;3186;54.062;9.962;2023-01-26T05:48:37;36.47;;;17.07;;
6306;SDS011;3186;54.062;9.962;2023-01-26T05:51:03;38.67;;;18.70;;
6306;SDS011;3186;54.062;9.962;2023-01-26T05:53:32;39.10;;;17.10;;
6306;SDS011;3186;54.062;9.962;2023-01-26T05:55:57;35.60;;;17.00;;
6306;SDS011;3186;54.062;9.962;2023-01-26T05:58:25;35.33;;;16.63;;
6306;SDS011;3186;54.062;9.962;2023-01-26T06:00:51;36.57;;;16.77;;
6306;SDS011;3186;54.062;9.962;2023-01-26T06:03:23;34.47;;;16.40;;
6306;SDS011;3186;54.062;9.962;2023-01-26T06:05:53;33.70;;;16.40;;
6306;SDS011;3186;54.062;9.962;2023-01-26T06:08:27;37.67;;;17.30;;
6306;SDS011;3186;54.062;9.962;2023-01-26T06:11:11;40.00;;;17.67;;
6306;SDS011;3186;54.062;9.962;2023-01-26T06:13:44;37.03;;;17.50;;
6306;SDS011;3186;54.062;9.962;2023-01-26T06:16:22;38.37;;;17.53;;
6306;SDS011;3186;54.062;9.962;2023-01-26T06:18:49;35.23;;;16.23;;
6306;SDS011;3186;54.062;9.962;2023-01-26T06:21:15;37.47;;;17.37;;
6306;SDS011;3186;54.062;9.962;2023-01-26T06:23:42;39.03;;;17.43;;
6306;SDS011;3186;54.062;9.962;2023-01-26T06:26:08;36.50;;;17.23;;
6306;SDS011;3186;54.062;9.962;2023-01-26T06:28:34;37.60;;;17.03;;
6306;SDS011;3186;54.062;9.962;2023-01-26T06:31:01;36.00;;;17.00;;
6306;SDS011;3186;54.062;9.962;2023-01-26T06:33:28;37.37;;;17.33;;
6306;SDS011;3186;54.062;9.962;2023-01-26T06:36:02;36.27;;;17.57;;
6306;SDS011;3186;54.062;9.962;2023-01-26T06:38:29;37.50;;;17.03;;
6306;SDS011;3186;54.062;9.962;2023-01-26T06:40:59;41.17;;;17.23;;
6306;SDS011;3186;54.062;9.962;2023-01-26T06:43:33;33.43;;;16.27;;
6306;SDS011;3186;54.062;9.962;2023-01-26T06:46:00;35.07;;;16.50;;
6306;SDS011;3186;54.062;9.962;2023-01-26T06:48:29;36.07;;;16.77;;
6306;SDS011;3186;54.062;9.962;2023-01-26T06:50:58;35.63;;;16.17;;
6306;SDS011;3186;54.062;9.962;2023-01-26T06:56:35;33.47;;;15.53;;
6306;SDS011;3186;54.062;9.962;2023-01-26T06:59:34;35.97;;;16.43;;
6306;SDS011;3186;54.062;9.962;2023-01-26T07:02:03;35.83;;;17.10;;
6306;SDS011;3186;54.062;9.962;2023-01-26T07:04:30;33.43;;;16.30;;
6306;SDS011;3186;54.062;9.962;2023-01-26T07:06:56;35.60;;;16.40;;
6306;SDS011;3186;54.062;9.962;2023-01-26T07:09:21;33.60;;;15.73;;
6306;SDS011;3186;54.062;9.962;2023-01-26T07:11:47;35.80;;;16.57;;
6306;SDS011;3186;54.062;9.962;2023-01-26T07:14:13;32.77;;;15.80;;
6306;SDS011;3186;54.062;9.962;2023-01-26T07:16:39;36.50;;;16.27;;
6306;SDS011;3186;54.062;9.962;2023-01-26T07:19:04;37.10;;;16.37;;
6306;SDS011;3186;54.062;9.962;2023-01-26T07:21:30;36.73;;;16.80;;
6306;SDS011;3186;54.062;9.962;2023-01-26T07:23:56;39.27;;;17.63;;
6306;SDS011;3186;54.062;9.962;2023-01-26T07:26:22;35.77;;;16.37;;
6306;SDS011;3186;54.062;9.962;2023-01-26T07:28:48;34.77;;;16.63;;
6306;SDS011;3186;54.062;9.962;2023-01-26T07:31:14;36.30;;;16.77;;
6306;SDS011;3186;54.062;9.962;2023-01-26T07:33:39;36.10;;;16.27;;
6306;SDS011;3186;54.062;9.962;2023-01-26T07:36:05;33.00;;;15.73;;
6306;SDS011;3186;54.062;9.962;2023-01-26T07:38:32;36.00;;;16.63;;
6306;SDS011;3186;54.062;9.962;2023-01-26T07:40:58;38.43;;;17.40;;
6306;SDS011;3186;54.062;9.962;2023-01-26T07:43:31;35.17;;;16.43;;
6306;SDS011;3186;54.062;9.962;2023-01-26T07:45:57;34.87;;;16.93;;
6306;SDS011;3186;54.062;9.962;2023-01-26T07:48:23;31.23;;;15.20;;
6306;SDS011;3186;54.062;9.962;2023-01-26T07:50:49;32.93;;;16.27;;
6306;SDS011;3186;54.062;9.962;2023-01-26T07:53:15;37.97;;;16.90;;
6306;SDS011;3186;54.062;9.962;2023-01-26T07:55:47;34.57;;;15.73;;
6306;SDS011;3186;54.062;9.962;2023-01-26T07:58:13;34.03;;;15.50;;
6306;SDS011;3186;54.062;9.962;2023-01-26T08:00:39;35.10;;;16.60;;
6306;SDS011;3186;54.062;9.962;2023-01-26T08:03:05;34.73;;;16.17;;
6306;SDS011;3186;54.062;9.962;2023-01-26T08:05:31;34.17;;;16.20;;
6306;SDS011;3186;54.062;9.962;2023-01-26T08:07:58;36.40;;;16.17;;
6306;SDS011;3186;54.062;9.962;2023-01-26T08:10:25;38.00;;;15.97;;
6306;SDS011;3186;54.062;9.962;2023-01-26T08:12:51;37.67;;;16.87;;
6306;SDS011;3186;54.062;9.962;2023-01-26T08:15:17;34.03;;;16.20;;
6306;SDS011;3186;54.062;9.962;2023-01-26T08:17:43;38.73;;;16.90;;
6306;SDS011;3186;54.062;9.962;2023-01-26T08:20:09;38.00;;;17.40;;
6306;SDS011;3186;54.062;9.962;2023-01-26T08:22:36;37.53;;;16.50;;
6306;SDS011;3186;54.062;9.962;2023-01-26T08:25:02;30.50;;;15.17;;
6306;SDS011;3186;54.062;9.962;2023-01-26T08:27:28;38.03;;;16.70;;
6306;SDS011;3186;54.062;9.962;2023-01-26T08:29:54;37.87;;;17.00;;
6306;SDS011;3186;54.062;9.962;2023-01-26T08:32:20;36.30;;;15.97;;
6306;SDS011;3186;54.062;9.962;2023-01-26T08:34:46;32.63;;;16.83;;
6306;SDS011;3186;54.062;9.962;2023-01-26T08:37:12;41.60;;;16.83;;
6306;SDS011;3186;54.062;9.962;2023-01-26T08:39:37;34.00;;;16.43;;
6306;SDS011;3186;54.062;9.962;2023-01-26T08:42:03;43.17;;;17.93;;
6306;SDS011;3186;54.062;9.962;2023-01-26T08:44:29;37.50;;;16.73;;
6306;SDS011;3186;54.062;9.962;2023-01-26T08:46:55;38.13;;;17.23;;
6306;SDS011;3186;54.062;9.962;2023-01-26T08:49:21;40.27;;;17.67;;
6306;SDS011;3186;54.062;9.962;2023-01-26T08:51:46;40.40;;;18.27;;
6306;SDS011;3186;54.062;9.962;2023-01-26T08:54:12;41.13;;;18.57;;
6306;SDS011;3186;54.062;9.962;2023-01-26T08:56:38;35.87;;;16.57;;
6306;SDS011;3186;54.062;9.962;2023-01-26T08:59:04;39.73;;;18.00;;
6306;SDS011;3186;54.062;9.962;2023-01-26T09:01:30;39.03;;;17.53;;
6306;SDS011;3186;54.062;9.962;2023-01-26T09:03:55;40.40;;;17.60;;
6306;SDS011;3186;54.062;9.962;2023-01-26T09:06:22;41.00;;;18.10;;
6306;SDS011;3186;54.062;9.962;2023-01-26T09:08:48;38.13;;;17.97;;
6306;SDS011;3186;54.062;9.962;2023-01-26T09:11:13;41.47;;;18.63;;
6306;SDS011;3186;54.062;9.962;2023-01-26T09:13:40;37.40;;;16.97;;
6306;SDS011;3186;54.062;9.962;2023-01-26T09:16:07;39.20;;;18.03;;
6306;SDS011;3186;54.062;9.962;2023-01-26T09:18:39;42.87;;;17.33;;
6306;SDS011;3186;54.062;9.962;2023-01-26T09:21:05;41.53;;;18.40;;
6306;SDS011;3186;54.062;9.962;2023-01-26T09:23:33;43.63;;;17.67;;
6306;SDS011;3186;54.062;9.962;2023-01-26T09:25:59;42.80;;;18.50;;
6306;SDS011;3186;54.062;9.962;2023-01-26T09:28:26;39.97;;;17.50;;
6306;SDS011;3186;54.062;9.962;2023-01-26T09:30:52;41.10;;;18.23;;
6306;SDS011;3186;54.062;9.962;2023-01-26T09:33:18;41.00;;;18.33;;
6306;SDS011;3186;54.062;9.962;2023-01-26T09:35:45;43.00;;;18.30;;
6306;SDS011;3186;54.062;9.962;2023-01-26T09:38:11;39.23;;;17.67;;
6306;SDS011;3186;54.062;9.962;2023-01-26T09:43:33;37.70;;;17.00;;
6306;SDS011;3186;54.062;9.962;2023-01-26T09:51:36;42.63;;;18.40;;
6306;SDS011;3186;54.062;9.962;2023-01-26T09:56:49;39.17;;;17.00;;
6306;SDS011;3186;54.062;9.962;2023-01-26T09:59:18;38.53;;;16.43;;
6306;SDS011;3186;54.062;9.962;2023-01-26T10:04:45;36.67;;;16.97;;
6306;SDS011;3186;54.062;9.962;2023-01-26T10:07:13;37.93;;;17.53;;
6306;SDS011;3186;54.062;9.962;2023-01-26T10:09:48;41.80;;;18.03;;
6306;SDS011;3186;54.062;9.962;2023-01-26T10:12:23;40.17;;;17.97;;
6306;SDS011;3186;54.062;9.962;2023-01-26T10:14:54;39.73;;;16.03;;
6306;SDS011;3186;54.062;9.962;2023-01-26T10:17:41;41.33;;;17.87;;
6306;SDS011;3186;54.062;9.962;2023-01-26T10:23:09;40.20;;;16.37;;
6306;SDS011;3186;54.062;9.962;2023-01-26T10:25:41;38.47;;;17.73;;
6306;SDS011;3186;54.062;9.962;2023-01-26T10:28:14;42.57;;;16.97;;
6306;SDS011;3186;54.062;9.962;2023-01-26T10:30:43;40.67;;;17.90;;
6306;SDS011;3186;54.062;9.962;2023-01-26T10:33:15;51.33;;;17.57;;
6306;SDS011;3186;54.062;9.962;2023-01-26T10:35:48;43.43;;;17.63;;
6306;SDS011;3186;54.062;9.962;2023-01-26T10:41:03;37.77;;;16.93;;
6306;SDS011;3186;54.062;9.962;2023-01-26T10:44:02;40.93;;;16.77;;
6306;SDS011;3186;54.062;9.962;2023-01-26T10:46:45;42.57;;;16.90;;
6306;SDS011;3186;54.062;9.962;2023-01-26T10:49:25;40.93;;;17.53;;
6306;SDS011;3186;54.062;9.962;2023-01-26T10:54:40;48.80;;;17.57;;
6306;SDS011;3186;54.062;9.962;2023-01-26T11:02:26;37.70;;;15.87;;
6306;SDS011;3186;54.062;9.962;2023-01-26T11:05:17;35.43;;;15.47;;
6306;SDS011;3186;54.062;9.962;2023-01-26T11:07:44;38.17;;;15.93;;
6306;SDS011;3186;54.062;9.962;2023-01-26T11:10:22;32.87;;;15.30;;
6306;SDS011;3186;54.062;9.962;2023-01-26T11:18:37;30.37;;;15.03;;
6306;SDS011;3186;54.062;9.962;2023-01-26T11:24:01;37.27;;;14.83;;
6306;SDS011;3186;54.062;9.962;2023-01-26T11:38:29;38.23;;;15.53;;
6306;SDS011;3186;54.062;9.962;2023-01-26T11:41:06;37.97;;;14.23;;
6306;SDS011;3186;54.062;9.962;2023-01-26T11:46:48;35.73;;;15.00;;
6306;SDS011;3186;54.062;9.962;2023-01-26T11:58:26;25.77;;;12.43;;
6306;SDS011;3186;54.062;9.962;2023-01-26T12:01:05;25.20;;;12.30;;
6306;SDS011;3186;54.062;9.962;2023-01-26T12:03:45;24.10;;;11.20;;
6306;SDS011;3186;54.062;9.962;2023-01-26T12:09:34;22.47;;;10.53;;
6306;SDS011;3186;54.062;9.962;2023-01-26T12:11:44;20.93;;;10.50;;
6306;SDS011;3186;54.062;9.962;2023-01-26T12:14:20;22.27;;;10.57;;
6306;SDS011;3186;54.062;9.962;2023-01-26T12:24:48;19.93;;;8.47;;
6306;SDS011;3186;54.062;9.962;2023-01-26T12:27:23;17.53;;;7.83;;
6306;SDS011;3186;54.062;9.962;2023-01-26T12:32:55;17.07;;;7.80;;
6306;SDS011;3186;54.062;9.962;2023-01-26T12:35:36;18.77;;;8.57;;
6306;SDS011;3186;54.062;9.962;2023-01-26T12:38:13;21.23;;;7.17;;
6306;SDS011;3186;54.062;9.962;2023-01-26T12:41:12;15.83;;;7.97;;
6306;SDS011;3186;54.062;9.962;2023-01-26T12:46:34;16.70;;;7.93;;
6306;SDS011;3186;54.062;9.962;2023-01-26T12:49:05;14.23;;;7.47;;
6306;SDS011;3186;54.062;9.962;2023-01-26T12:51:36;21.13;;;7.63;;
6306;SDS011;3186;54.062;9.962;2023-01-26T12:55:10;21.23;;;7.70;;
6306;SDS011;3186;54.062;9.962;2023-01-26T12:57:06;13.90;;;6.60;;
6306;SDS011;3186;54.062;9.962;2023-01-26T12:59:41;18.77;;;8.93;;
6306;SDS011;3186;54.062;9.962;2023-01-26T13:04:45;20.50;;;8.47;;
6306;SDS011;3186;54.062;9.962;2023-01-26T13:15:23;19.97;;;9.17;;
6306;SDS011;3186;54.062;9.962;2023-01-26T13:17:55;20.73;;;8.77;;
6306;SDS011;3186;54.062;9.962;2023-01-26T13:20:47;13.10;;;7.33;;
6306;SDS011;3186;54.062;9.962;2023-01-26T13:23:59;19.40;;;8.10;;
6306;SDS011;3186;54.062;9.962;2023-01-26T13:28:45;23.03;;;8.47;;
6306;SDS011;3186;54.062;9.962;2023-01-26T13:31:12;19.47;;;8.00;;
6306;SDS011;3186;54.062;9.962;2023-01-26T13:33:52;19.93;;;8.53;;
6306;SDS011;3186;54.062;9.962;2023-01-26T13:36:19;22.57;;;7.77;;
6306;SDS011;3186;54.062;9.962;2023-01-26T13:38:52;16.60;;;7.90;;
6306;SDS011;3186;54.062;9.962;2023-01-26T13:41:22;19.27;;;7.70;;
6306;SDS011;3186;54.062;9.962;2023-01-26T13:43:49;22.93;;;8.33;;
6306;SDS011;3186;54.062;9.962;2023-01-26T13:48:51;22.83;;;8.77;;
6306;SDS011;3186;54.062;9.962;2023-01-26T13:51:19;18.60;;;7.20;;
6306;SDS011;3186;54.062;9.962;2023-01-26T13:53:52;15.33;;;6.77;;
6306;SDS011;3186;54.062;9.962;2023-01-26T13:58:53;24.53;;;6.83;;
6306;SDS011;3186;54.062;9.962;2023-01-26T14:01:45;19.70;;;7.13;;
6306;SDS011;3186;54.062;9.962;2023-01-26T14:04:17;16.40;;;7.10;;
6306;SDS011;3186;54.062;9.962;2023-01-26T14:06:58;15.90;;;7.33;;
6306;SDS011;3186;54.062;9.962;2023-01-26T14:09:33;15.60;;;6.23;;
6306;SDS011;3186;54.062;9.962;2023-01-26T14:12:12;21.77;;;7.07;;
6306;SDS011;3186;54.062;9.962;2023-01-26T14:14:49;22.63;;;6.90;;
6306;SDS011;3186;54.062;9.962;2023-01-26T14:17:23;15.53;;;6.77;;
6306;SDS011;3186;54.062;9.962;2023-01-26T14:19:51;16.17;;;6.20;;
6306;SDS011;3186;54.062;9.962;2023-01-26T14:22:17;14.70;;;6.00;;
6306;SDS011;3186;54.062;9.962;2023-01-26T14:24:46;19.00;;;5.53;;
6306;SDS011;3186;54.062;9.962;2023-01-26T14:35:27;14.37;;;5.93;;
6306;SDS011;3186;54.062;9.962;2023-01-26T14:38:03;17.63;;;5.43;;
6306;SDS011;3186;54.062;9.962;2023-01-26T14:40:52;18.07;;;6.00;;
6306;SDS011;3186;54.062;9.962;2023-01-26T14:43:21;14.57;;;6.00;;
6306;SDS011;3186;54.062;9.962;2023-01-26T14:45:49;17.13;;;5.90;;
6306;SDS011;3186;54.062;9.962;2023-01-26T14:48:21;18.93;;;6.97;;
6306;SDS011;3186;54.062;9.962;2023-01-26T14:50:51;20.47;;;6.87;;
6306;SDS011;3186;54.062;9.962;2023-01-26T14:53:21;13.83;;;5.87;;
6306;SDS011;3186;54.062;9.962;2023-01-26T14:55:48;17.10;;;6.00;;
6306;SDS011;3186;54.062;9.962;2023-01-26T14:58:20;17.80;;;6.00;;
6306;SDS011;3186;54.062;9.962;2023-01-26T15:00:55;17.07;;;6.03;;
6306;SDS011;3186;54.062;9.962;2023-01-26T15:03:26;14.83;;;5.10;;
6306;SDS011;3186;54.062;9.962;2023-01-26T15:06:05;15.90;;;5.70;;
6306;SDS011;3186;54.062;9.962;2023-01-26T15:08:37;17.33;;;5.30;;
6306;SDS011;3186;54.062;9.962;2023-01-26T15:11:04;15.90;;;5.40;;
6306;SDS011;3186;54.062;9.962;2023-01-26T15:13:53;13.60;;;5.07;;
6306;SDS011;3186;54.062;9.962;2023-01-26T15:16:20;12.73;;;5.33;;
6306;SDS011;3186;54.062;9.962;2023-01-26T15:18:57;15.50;;;5.63;;
6306;SDS011;3186;54.062;9.962;2023-01-26T15:21:46;13.23;;;4.80;;
6306;SDS011;3186;54.062;9.962;2023-01-26T15:24:12;16.00;;;5.47;;
6306;SDS011;3186;54.062;9.962;2023-01-26T15:26:39;15.97;;;4.73;;
6306;SDS011;3186;54.062;9.962;2023-01-26T15:31:54;19.73;;;5.57;;
6306;SDS011;3186;54.062;9.962;2023-01-26T15:34:31;19.57;;;5.50;;
6306;SDS011;3186;54.062;9.962;2023-01-26T15:36:59;14.77;;;5.13;;
6306;SDS011;3186;54.062;9.962;2023-01-26T15:39:25;11.10;;;4.77;;
6306;SDS011;3186;54.062;9.962;2023-01-26T15:42:11;13.13;;;4.70;;
6306;SDS011;3186;54.062;9.962;2023-01-26T15:44:45;11.77;;;4.97;;
6306;SDS011;3186;54.062;9.962;2023-01-26T15:47:10;18.83;;;5.33;;
6306;SDS011;3186;54.062;9.962;2023-01-26T15:49:38;11.73;;;4.87;;
6306;SDS011;3186;54.062;9.962;2023-01-26T15:52:14;16.10;;;5.40;;
6306;SDS011;3186;54.062;9.962;2023-01-26T15:54:41;12.60;;;5.00;;
6306;SDS011;3186;54.062;9.962;2023-01-26T15:57:09;13.90;;;5.90;;
6306;SDS011;3186;54.062;9.962;2023-01-26T15:59:35;21.20;;;5.57;;
6306;SDS011;3186;54.062;9.962;2023-01-26T16:02:02;12.63;;;4.80;;
6306;SDS011;3186;54.062;9.962;2023-01-26T16:04:28;11.93;;;4.93;;
6306;SDS011;3186;54.062;9.962;2023-01-26T16:06:54;15.80;;;5.17;;
6306;SDS011;3186;54.062;9.962;2023-01-26T16:09:20;12.23;;;5.00;;
6306;SDS011;3186;54.062;9.962;2023-01-26T16:11:46;11.67;;;4.67;;
6306;SDS011;3186;54.062;9.962;2023-01-26T16:14:15;21.23;;;5.30;;
6306;SDS011;3186;54.062;9.962;2023-01-26T16:16:41;15.40;;;4.70;;
6306;SDS011;3186;54.062;9.962;2023-01-26T16:19:07;15.47;;;5.53;;
6306;SDS011;3186;54.062;9.962;2023-01-26T16:21:34;17.10;;;4.40;;
6306;SDS011;3186;54.062;9.962;2023-01-26T16:24:02;11.00;;;4.97;;
6306;SDS011;3186;54.062;9.962;2023-01-26T16:26:28;12.57;;;4.90;;
6306;SDS011;3186;54.062;9.962;2023-01-26T16:28:55;13.67;;;4.13;;
6306;SDS011;3186;54.062;9.962;2023-01-26T16:31:29;10.07;;;4.40;;
6306;SDS011;3186;54.062;9.962;2023-01-26T16:33:56;10.97;;;4.50;;
6306;SDS011;3186;54.062;9.962;2023-01-26T16:36:23;17.80;;;4.70;;
6306;SDS011;3186;54.062;9.962;2023-01-26T16:38:49;16.43;;;4.73;;
6306;SDS011;3186;54.062;9.962;2023-01-26T16:43:55;15.20;;;5.17;;
6306;SDS011;3186;54.062;9.962;2023-01-26T16:46:22;13.90;;;4.93;;
6306;SDS011;3186;54.062;9.962;2023-01-26T16:48:48;15.80;;;4.67;;
6306;SDS011;3186;54.062;9.962;2023-01-26T16:51:19;16.23;;;5.70;;
6306;SDS011;3186;54.062;9.962;2023-01-26T16:53:50;16.53;;;5.80;;
6306;SDS011;3186;54.062;9.962;2023-01-26T16:56:17;12.90;;;5.07;;
6306;SDS011;3186;54.062;9.962;2023-01-26T16:58:44;17.63;;;7.63;;
6306;SDS011;3186;54.062;9.962;2023-01-26T17:01:43;19.67;;;6.83;;
6306;SDS011;3186;54.062;9.962;2023-01-26T17:04:02;16.60;;;5.33;;
6306;SDS011;3186;54.062;9.962;2023-01-26T17:06:29;13.67;;;5.17;;
6306;SDS011;3186;54.062;9.962;2023-01-26T17:08:55;16.30;;;5.33;;
6306;SDS011;3186;54.062;9.962;2023-01-26T17:11:22;15.00;;;5.90;;